createdAt,value
2023-02-19T00:01:46.203Z,94.40
2023-02-19T00:04:19.286Z,94.70
2023-02-19T00:06:47.454Z,94.70
2023-02-19T00:09:16.012Z,95.10
2023-02-19T00:11:43.332Z,95.30
2023-02-19T00:14:14.993Z,95.40
2023-02-19T00:16:42.197Z,95.60
2023-02-19T00:19:14.229Z,96.10
2023-02-19T00:21:41.402Z,96.30
2023-02-19T00:24:10.798Z,96.50
2023-02-19T00:26:40.047Z,96.70
2023-02-19T00:29:07.139Z,97.50
2023-02-19T00:31:35.961Z,97.40
2023-02-19T00:34:05.868Z,98.10
2023-02-19T00:36:36.261Z,98.90
2023-02-19T00:39:03.856Z,99.40
2023-02-19T00:41:30.986Z,99.90
2023-02-19T00:44:03.160Z,99.90
2023-02-19T00:46:36.225Z,99.90
2023-02-19T00:49:03.789Z,99.90
2023-02-19T00:51:33.797Z,99.90
2023-02-19T00:54:01.334Z,99.90
2023-02-19T00:56:28.880Z,99.90
2023-02-19T00:58:56.245Z,99.90
2023-02-19T01:01:23.879Z,99.90
2023-02-19T01:03:51.091Z,99.90
2023-02-19T01:06:19.785Z,99.90
2023-02-19T01:08:47.411Z,99.90
2023-02-19T01:11:15.083Z,99.90
2023-02-19T01:13:42.750Z,99.90
2023-02-19T01:16:21.526Z,99.90
2023-02-19T01:18:49.821Z,99.90
2023-02-19T01:21:22.423Z,99.90
2023-02-19T01:23:50.995Z,99.90
2023-02-19T01:26:21.283Z,99.90
2023-02-19T01:28:48.893Z,99.90
2023-02-19T01:31:18.962Z,99.90
2023-02-19T01:33:47.774Z,99.90
2023-02-19T01:36:15.963Z,99.90
2023-02-19T01:38:44.257Z,99.90
2023-02-19T01:41:14.784Z,99.90
2023-02-19T01:44:12.965Z,99.90
2023-02-19T01:46:41.961Z,99.90
2023-02-19T01:49:27.371Z,99.90
2023-02-19T01:52:04.625Z,99.90
2023-02-19T01:54:35.408Z,99.90
2023-02-19T01:57:06.813Z,99.90
2023-02-19T01:59:34.628Z,99.90
2023-02-19T02:02:02.061Z,99.90
2023-02-19T02:04:31.947Z,99.90
2023-02-19T02:07:01.387Z,99.90
2023-02-19T02:09:49.155Z,99.90
2023-02-19T02:12:16.536Z,99.90
2023-02-19T02:14:48.013Z,99.90
2023-02-19T02:17:25.469Z,99.90
2023-02-19T02:20:07.637Z,99.90
2023-02-19T02:22:55.800Z,99.90
2023-02-19T02:25:41.734Z,99.90
2023-02-19T02:28:39.568Z,99.90
2023-02-19T02:31:15.392Z,99.90
2023-02-19T02:34:13.257Z,99.90
2023-02-19T02:36:44.702Z,99.90
2023-02-19T02:39:15.571Z,99.90
2023-02-19T02:41:45.644Z,99.90
2023-02-19T02:44:13.091Z,99.90
2023-02-19T02:46:44.766Z,99.90
2023-02-19T02:49:24.266Z,99.90
2023-02-19T02:51:53.971Z,99.90
2023-02-19T02:54:47.904Z,99.90
2023-02-19T02:57:16.592Z,99.90
2023-02-19T02:59:44.702Z,99.90
2023-02-19T03:02:32.312Z,99.90
2023-02-19T03:05:41.495Z,99.90
2023-02-19T03:08:21.454Z,99.90
2023-02-19T03:10:53.584Z,99.90
2023-02-19T03:13:52.857Z,99.90
2023-02-19T03:17:09.894Z,99.90
2023-02-19T03:19:43.448Z,99.90
2023-02-19T03:22:20.136Z,99.90
2023-02-19T03:25:22.686Z,99.90
2023-02-19T03:27:51.500Z,99.90
2023-02-19T03:30:28.704Z,99.90
2023-02-19T03:33:01.282Z,99.90
2023-02-19T03:35:31.964Z,99.90
2023-02-19T03:38:19.819Z,99.90
2023-02-19T03:40:59.597Z,99.90
2023-02-19T03:43:42.518Z,99.90
2023-02-19T03:46:23.405Z,99.90
2023-02-19T03:49:00.326Z,99.90
2023-02-19T03:51:40.594Z,99.90
2023-02-19T03:54:24.934Z,99.90
2023-02-19T03:57:26.577Z,99.90
2023-02-19T04:00:03.525Z,99.90
2023-02-19T04:02:35.060Z,99.90
2023-02-19T04:05:19.522Z,99.90
2023-02-19T04:07:50.192Z,99.90
2023-02-19T04:10:19.229Z,99.90
2023-02-19T04:12:51.794Z,99.90
2023-02-19T04:15:24.729Z,99.90
2023-02-19T04:17:56.585Z,99.90
2023-02-19T04:20:28.097Z,99.90
2023-02-19T04:22:56.053Z,99.90
2023-02-19T04:25:24.361Z,99.90
2023-02-19T04:27:51.693Z,99.90
2023-02-19T04:30:18.833Z,99.90
2023-02-19T04:32:45.842Z,99.90
2023-02-19T04:35:12.900Z,99.90
2023-02-19T04:37:39.922Z,99.90
2023-02-19T04:40:07.438Z,99.90
2023-02-19T04:42:34.456Z,99.90
2023-02-19T04:45:01.573Z,99.90
2023-02-19T04:47:28.661Z,99.90
2023-02-19T04:49:55.759Z,99.90
2023-02-19T04:52:22.774Z,99.90
2023-02-19T04:54:49.952Z,99.90
2023-02-19T04:57:17.074Z,99.90
2023-02-19T04:59:44.196Z,99.90
2023-02-19T05:02:11.250Z,99.90
2023-02-19T05:04:38.304Z,99.90
2023-02-19T05:07:05.490Z,99.90
2023-02-19T05:09:32.505Z,99.90
2023-02-19T05:11:59.545Z,99.90
2023-02-19T05:14:26.574Z,99.90
2023-02-19T05:16:53.591Z,99.90
2023-02-19T05:19:20.905Z,99.90
2023-02-19T05:21:47.988Z,99.90
2023-02-19T05:24:15.082Z,99.90
2023-02-19T05:26:44.602Z,99.90
2023-02-19T05:29:12.485Z,99.90
2023-02-19T05:31:39.616Z,99.90
2023-02-19T05:34:06.764Z,99.90
2023-02-19T05:36:34.216Z,99.90
2023-02-19T05:39:01.305Z,99.90
2023-02-19T05:41:30.009Z,99.90
2023-02-19T05:43:57.844Z,99.90
2023-02-19T05:46:27.902Z,99.90
2023-02-19T05:48:55.854Z,99.90
2023-02-19T05:51:25.517Z,99.90
2023-02-19T05:53:53.310Z,99.90
2023-02-19T05:56:26.535Z,99.90
2023-02-19T05:58:54.034Z,99.90
2023-02-19T06:01:23.754Z,99.90
2023-02-19T06:03:50.843Z,99.90
2023-02-19T06:06:19.753Z,99.90
2023-02-19T06:08:48.425Z,99.90
2023-02-19T06:11:15.461Z,99.90
2023-02-19T06:13:42.531Z,99.90
2023-02-19T06:16:09.975Z,99.90
2023-02-19T06:18:37.276Z,99.90
2023-02-19T06:21:06.220Z,99.90
2023-02-19T06:23:33.656Z,99.90
2023-02-19T06:26:16.233Z,99.90
2023-02-19T06:28:43.356Z,99.90
2023-02-19T06:31:11.896Z,99.90
2023-02-19T06:33:43.272Z,99.90
2023-02-19T06:36:16.795Z,99.90
2023-02-19T06:38:43.921Z,99.90
2023-02-19T06:41:12.563Z,99.90
2023-02-19T06:43:41.243Z,99.90
2023-02-19T06:46:09.157Z,99.90
2023-02-19T06:48:40.426Z,99.90
2023-02-19T06:51:11.655Z,99.90
2023-02-19T06:53:39.434Z,99.90
2023-02-19T06:56:21.022Z,99.90
2023-02-19T06:58:48.291Z,99.90
2023-02-19T07:01:15.680Z,99.90
2023-02-19T07:03:42.920Z,99.90
2023-02-19T07:06:10.111Z,99.90
2023-02-19T07:08:37.473Z,99.90
2023-02-19T07:11:04.785Z,99.90
2023-02-19T07:13:32.197Z,99.90
2023-02-19T07:16:01.283Z,99.90
2023-02-19T07:18:29.698Z,99.90
2023-02-19T07:21:08.481Z,99.90
2023-02-19T07:23:35.862Z,99.80
2023-02-19T07:26:04.329Z,99.30
2023-02-19T07:28:31.414Z,99.70
2023-02-19T07:31:05.357Z,97.30
2023-02-19T07:33:32.470Z,97.10
2023-02-19T07:35:59.574Z,97.30
2023-02-19T07:38:27.104Z,94.40
2023-02-19T07:40:55.839Z,92.60
2023-02-19T07:43:28.132Z,92.00
2023-02-19T07:45:55.596Z,91.00
2023-02-19T07:48:23.254Z,94.30
2023-02-19T07:50:55.086Z,95.10
2023-02-19T07:53:23.474Z,94.00
2023-02-19T07:55:50.790Z,92.40
2023-02-19T07:58:18.655Z,91.10
2023-02-19T08:00:46.294Z,90.50
2023-02-19T08:03:17.751Z,90.40
2023-02-19T08:05:52.585Z,89.90
2023-02-19T08:08:20.431Z,86.80
2023-02-19T08:11:06.195Z,87.90
2023-02-19T08:13:34.307Z,87.30
2023-02-19T08:16:16.983Z,88.80
2023-02-19T08:18:46.675Z,87.10
2023-02-19T08:21:15.383Z,87.50
2023-02-19T08:23:43.818Z,85.90
2023-02-19T08:26:11.211Z,86.50
2023-02-19T08:28:38.388Z,84.30
2023-02-19T08:31:07.320Z,81.90
2023-02-19T08:33:34.944Z,80.50
2023-02-19T08:36:05.115Z,80.00
2023-02-19T08:38:34.840Z,78.60
2023-02-19T08:41:07.582Z,78.30
2023-02-19T08:43:35.399Z,76.60
2023-02-19T08:46:03.313Z,75.60
2023-02-19T08:48:30.614Z,75.00
2023-02-19T08:50:59.967Z,79.00
2023-02-19T08:53:27.508Z,74.20
2023-02-19T08:55:54.771Z,72.70
2023-02-19T08:58:22.172Z,72.00
2023-02-19T09:00:49.396Z,72.10
2023-02-19T09:03:16.367Z,71.60
2023-02-19T09:05:43.471Z,70.50
2023-02-19T09:08:11.545Z,71.30
2023-02-19T09:10:38.819Z,73.60
2023-02-19T09:13:05.898Z,75.60
2023-02-19T09:15:33.698Z,70.40
2023-02-19T09:18:01.077Z,69.00
2023-02-19T09:20:28.124Z,67.30
2023-02-19T09:22:59.115Z,68.00
2023-02-19T09:25:26.338Z,65.70
2023-02-19T09:27:57.479Z,65.80
2023-02-19T09:30:24.735Z,64.50
2023-02-19T09:32:52.050Z,64.60
2023-02-19T09:35:20.488Z,63.40
2023-02-19T09:37:47.566Z,62.00
2023-02-19T09:40:15.989Z,62.00
2023-02-19T09:42:43.586Z,59.90
2023-02-19T09:45:25.185Z,60.10
2023-02-19T09:47:59.200Z,59.50
2023-02-19T09:50:38.767Z,58.30
2023-02-19T09:53:19.363Z,58.40
2023-02-19T09:55:46.666Z,57.90
2023-02-19T09:58:25.043Z,57.20
2023-02-19T10:00:54.319Z,57.80
2023-02-19T10:03:28.677Z,57.40
2023-02-19T10:05:57.013Z,57.10
2023-02-19T10:08:24.213Z,57.80
2023-02-19T10:10:52.603Z,57.20
2023-02-19T10:13:21.537Z,57.10
2023-02-19T10:15:58.308Z,57.00
2023-02-19T10:18:31.519Z,58.00
2023-02-19T10:20:59.239Z,57.50
2023-02-19T10:23:26.672Z,58.10
2023-02-19T10:25:57.650Z,57.70
2023-02-19T10:28:31.439Z,57.00
2023-02-19T10:31:08.457Z,57.50
2023-02-19T10:33:56.577Z,57.90
2023-02-19T10:36:41.847Z,58.10
2023-02-19T10:39:29.002Z,60.20
2023-02-19T10:41:56.124Z,59.60
2023-02-19T10:44:31.797Z,59.10
2023-02-19T10:47:03.187Z,58.90
2023-02-19T10:49:46.693Z,58.80
2023-02-19T10:52:19.779Z,58.60
2023-02-19T10:54:54.045Z,59.90
2023-02-19T10:57:48.849Z,59.40
2023-02-19T11:00:15.977Z,59.90
2023-02-19T11:02:44.476Z,58.90
2023-02-19T11:05:23.879Z,59.20
2023-02-19T11:07:58.719Z,59.10
2023-02-19T11:10:35.985Z,58.60
2023-02-19T11:13:06.122Z,58.60
2023-02-19T11:15:35.991Z,59.20
2023-02-19T11:18:29.352Z,59.00
2023-02-19T11:21:01.106Z,58.40
2023-02-19T11:23:31.692Z,57.80
2023-02-19T11:26:03.183Z,58.30
2023-02-19T11:28:39.519Z,56.70
2023-02-19T11:31:30.135Z,56.60
2023-02-19T11:34:02.755Z,57.20
2023-02-19T11:36:35.316Z,56.70
2023-02-19T11:39:22.066Z,58.00
2023-02-19T11:42:22.901Z,57.60
2023-02-19T11:45:16.100Z,56.70
2023-02-19T11:48:10.948Z,56.90
2023-02-19T11:50:50.280Z,56.50
2023-02-19T11:53:30.196Z,57.20
2023-02-19T11:56:16.849Z,57.00
2023-02-19T11:59:01.045Z,56.30
2023-02-19T12:01:36.331Z,56.20
2023-02-19T12:04:18.777Z,56.40
2023-02-19T12:07:21.220Z,57.30
2023-02-19T12:10:19.694Z,56.40
2023-02-19T12:13:14.332Z,55.90
2023-02-19T12:18:51.655Z,57.30
2023-02-19T12:21:39.152Z,58.20
2023-02-19T12:24:24.988Z,57.60
2023-02-19T12:27:13.052Z,57.60
2023-02-19T12:30:17.576Z,57.50
2023-02-19T12:33:04.718Z,57.70
2023-02-19T12:35:44.720Z,57.90
2023-02-19T12:38:26.593Z,58.70
2023-02-19T12:41:18.466Z,59.20
2023-02-19T12:43:56.201Z,56.90
2023-02-19T12:46:31.855Z,57.70
2023-02-19T12:49:07.307Z,57.80
2023-02-19T12:51:49.830Z,58.60
2023-02-19T12:54:25.847Z,58.60
2023-02-19T12:57:23.051Z,57.80
2023-02-19T13:00:28.046Z,57.70
2023-02-19T13:03:22.877Z,57.60
2023-02-19T13:06:03.474Z,59.00
2023-02-19T13:08:36.617Z,58.20
2023-02-19T13:11:34.546Z,58.00
2023-02-19T13:14:17.916Z,59.60
2023-02-19T13:16:50.858Z,59.60
2023-02-19T13:19:17.865Z,59.10
2023-02-19T13:22:10.034Z,57.80
2023-02-19T13:24:41.926Z,57.80
2023-02-19T13:27:41.671Z,58.30
2023-02-19T13:30:11.852Z,58.20
2023-02-19T13:32:54.108Z,57.30
2023-02-19T13:35:45.227Z,58.00
2023-02-19T13:38:14.077Z,56.80
2023-02-19T13:40:53.097Z,57.00
2023-02-19T13:43:30.668Z,57.80
2023-02-19T13:46:05.584Z,58.50
2023-02-19T13:48:44.386Z,57.40
2023-02-19T13:51:18.920Z,57.30
2023-02-19T13:53:45.948Z,55.80
2023-02-19T13:56:36.741Z,56.60
2023-02-19T13:59:12.892Z,56.80
2023-02-19T14:01:52.060Z,57.80
2023-02-19T14:04:23.832Z,58.10
2023-02-19T14:07:05.980Z,57.10
2023-02-19T14:09:44.085Z,58.10
2023-02-19T14:12:11.563Z,58.30
2023-02-19T14:14:50.059Z,57.40
2023-02-19T14:17:38.549Z,59.20
2023-02-19T14:20:17.715Z,58.50
2023-02-19T14:22:48.834Z,59.00
2023-02-19T14:25:24.857Z,58.40
2023-02-19T14:27:54.370Z,58.20
2023-02-19T14:30:24.411Z,58.80
2023-02-19T14:33:02.711Z,60.20
2023-02-19T14:35:49.679Z,58.40
2023-02-19T14:38:30.521Z,59.10
2023-02-19T14:40:57.965Z,59.60
2023-02-19T14:43:26.773Z,59.90
2023-02-19T14:46:01.386Z,60.00
2023-02-19T14:48:36.840Z,58.80
2023-02-19T14:51:10.083Z,59.70
2023-02-19T14:53:44.478Z,59.70
2023-02-19T14:56:28.356Z,60.50
2023-02-19T14:59:07.639Z,60.00
2023-02-19T15:01:34.792Z,60.50
2023-02-19T15:04:02.739Z,60.00
2023-02-19T15:06:31.916Z,60.50
2023-02-19T15:09:06.119Z,61.20
2023-02-19T15:11:34.836Z,61.10
2023-02-19T15:14:07.859Z,61.10
2023-02-19T15:16:36.935Z,62.00
2023-02-19T15:19:08.877Z,62.00
2023-02-19T15:21:40.321Z,62.30
2023-02-19T15:24:07.868Z,63.30
2023-02-19T15:26:36.154Z,64.10
2023-02-19T15:29:10.672Z,63.60
2023-02-19T15:31:44.562Z,63.20
2023-02-19T15:34:31.980Z,63.30
2023-02-19T15:37:02.645Z,63.50
2023-02-19T15:39:33.751Z,64.20
2023-02-19T15:42:03.862Z,64.70
2023-02-19T15:44:40.128Z,64.30
2023-02-19T15:47:36.271Z,64.30
2023-02-19T15:50:12.889Z,64.90
2023-02-19T15:52:51.009Z,64.40
2023-02-19T15:55:41.906Z,64.30
2023-02-19T15:58:09.373Z,65.00
2023-02-19T16:00:46.582Z,65.30
2023-02-19T16:03:20.193Z,65.30
2023-02-19T16:05:58.539Z,65.40
2023-02-19T16:08:40.024Z,65.70
2023-02-19T16:11:30.653Z,65.90
2023-02-19T16:14:22.122Z,66.50
2023-02-19T16:17:04.522Z,67.00
2023-02-19T16:19:43.952Z,67.40
2023-02-19T16:22:13.452Z,67.90
2023-02-19T16:24:53.494Z,68.40
2023-02-19T16:27:35.013Z,68.40
2023-02-19T16:30:25.926Z,68.70
2023-02-19T16:33:22.239Z,69.00
2023-02-19T16:35:52.568Z,69.60
2023-02-19T16:38:20.946Z,70.50
2023-02-19T16:40:51.139Z,70.90
2023-02-19T16:43:30.615Z,71.30
2023-02-19T16:45:58.856Z,71.20
2023-02-19T16:48:26.035Z,71.80
2023-02-19T16:50:54.422Z,72.40
2023-02-19T16:53:25.054Z,72.90
2023-02-19T16:55:52.743Z,72.70
2023-02-19T16:58:20.061Z,73.50
2023-02-19T17:00:51.665Z,73.80
2023-02-19T17:03:22.804Z,74.30
2023-02-19T17:05:52.161Z,74.40
2023-02-19T17:08:35.642Z,75.20
2023-02-19T17:11:10.805Z,75.40
2023-02-19T17:13:38.300Z,75.80
2023-02-19T17:16:06.463Z,75.90
2023-02-19T17:18:35.255Z,76.20
2023-02-19T17:21:11.175Z,76.00
2023-02-19T17:23:38.403Z,76.30
2023-02-19T17:26:06.616Z,77.30
2023-02-19T17:28:34.862Z,77.30
2023-02-19T17:31:01.971Z,76.90
2023-02-19T17:33:29.010Z,77.10
2023-02-19T17:35:56.079Z,77.70
2023-02-19T17:38:23.135Z,77.80
2023-02-19T17:40:54.547Z,78.00
2023-02-19T17:43:24.729Z,78.40
2023-02-19T17:45:54.090Z,78.80
2023-02-19T17:48:21.143Z,79.00
2023-02-19T17:50:50.330Z,79.40
2023-02-19T17:53:18.626Z,79.80
2023-02-19T17:55:47.414Z,79.70
2023-02-19T17:58:16.134Z,79.70
2023-02-19T18:00:46.714Z,80.60
2023-02-19T18:03:13.975Z,81.40
2023-02-19T18:05:41.136Z,81.70
2023-02-19T18:08:09.882Z,81.30
2023-02-19T18:10:38.419Z,81.60
2023-02-19T18:13:05.498Z,81.50
2023-02-19T18:15:32.760Z,81.40
2023-02-19T18:17:59.909Z,82.50
2023-02-19T18:20:29.502Z,83.30
2023-02-19T18:22:57.376Z,83.30
2023-02-19T18:25:24.632Z,84.20
2023-02-19T18:27:52.552Z,83.10
2023-02-19T18:30:23.535Z,83.00
2023-02-19T18:32:52.933Z,83.50
2023-02-19T18:35:22.101Z,84.20
2023-02-19T18:37:53.064Z,86.20
2023-02-19T18:40:21.444Z,84.90
2023-02-19T18:42:48.541Z,86.30
2023-02-19T18:45:15.753Z,86.00
2023-02-19T18:47:42.954Z,84.90
2023-02-19T18:50:11.726Z,85.40
2023-02-19T18:52:38.855Z,86.40
2023-02-19T18:55:06.306Z,87.30
2023-02-19T18:57:33.358Z,89.40
2023-02-19T19:00:00.456Z,91.00
2023-02-19T19:02:33.760Z,93.90
2023-02-19T19:05:07.090Z,91.60
2023-02-19T19:07:34.112Z,90.10
2023-02-19T19:10:01.180Z,90.20
2023-02-19T19:12:28.202Z,91.20
2023-02-19T19:14:55.534Z,92.10
2023-02-19T19:17:22.600Z,92.90
2023-02-19T19:19:49.921Z,93.40
2023-02-19T19:22:22.808Z,92.40
2023-02-19T19:24:50.134Z,94.70
2023-02-19T19:27:20.676Z,95.50
2023-02-19T19:29:48.177Z,94.60
2023-02-19T19:32:15.348Z,95.40
2023-02-19T19:34:43.581Z,94.10
2023-02-19T19:37:11.029Z,94.30
2023-02-19T19:39:38.421Z,95.60
2023-02-19T19:42:07.884Z,97.20
2023-02-19T19:44:34.949Z,97.60
2023-02-19T19:47:02.040Z,99.90
2023-02-19T19:49:29.074Z,99.20
2023-02-19T19:51:58.597Z,99.40
2023-02-19T19:54:25.737Z,99.60
2023-02-19T19:56:52.785Z,99.50
2023-02-19T19:59:19.953Z,99.90
2023-02-19T20:01:52.244Z,99.60
2023-02-19T20:04:21.524Z,99.90
2023-02-19T20:06:49.068Z,99.90
2023-02-19T20:09:17.359Z,99.90
2023-02-19T20:11:52.519Z,99.90
2023-02-19T20:14:20.998Z,99.90
2023-02-19T20:16:48.773Z,99.90
2023-02-19T20:19:17.401Z,99.90
2023-02-19T20:21:46.101Z,99.90
2023-02-19T20:24:25.256Z,99.90
2023-02-19T20:26:59.191Z,99.90
2023-02-19T20:29:29.217Z,99.90
2023-02-19T20:32:00.036Z,99.90
2023-02-19T20:34:27.342Z,99.90
2023-02-19T20:36:54.741Z,99.90
2023-02-19T20:39:22.532Z,99.90
2023-02-19T20:41:51.825Z,99.90
2023-02-19T20:44:19.600Z,99.90
2023-02-19T20:46:49.457Z,99.90
2023-02-19T20:49:19.315Z,99.90
2023-02-19T20:52:00.768Z,99.90
2023-02-19T20:54:39.214Z,99.90
2023-02-19T20:57:08.365Z,99.90
2023-02-19T20:59:35.845Z,99.90
2023-02-19T21:02:05.776Z,99.90
2023-02-19T21:04:44.657Z,99.90
2023-02-19T21:07:16.826Z,99.90
2023-02-19T21:09:45.313Z,99.90
2023-02-19T21:12:14.680Z,99.90
2023-02-19T21:14:42.844Z,99.90
2023-02-19T21:17:10.561Z,99.90
2023-02-19T21:19:37.644Z,99.90
2023-02-19T21:22:06.933Z,99.90
2023-02-19T21:24:34.725Z,99.90
2023-02-19T21:27:03.701Z,99.90
2023-02-19T21:29:32.170Z,99.90
2023-02-19T21:32:01.254Z,99.90
2023-02-19T21:34:30.218Z,99.90
2023-02-19T21:36:57.844Z,99.90
2023-02-19T21:39:26.439Z,99.90
2023-02-19T21:41:53.781Z,99.90
2023-02-19T21:44:22.579Z,99.90
2023-02-19T21:46:49.738Z,99.90
2023-02-19T21:49:17.415Z,99.90
2023-02-19T21:51:48.081Z,99.90
2023-02-19T21:54:24.947Z,99.90
2023-02-19T21:56:53.799Z,99.90
2023-02-19T21:59:22.720Z,99.90
2023-02-19T22:01:50.778Z,99.90
2023-02-19T22:04:21.251Z,99.90
2023-02-19T22:06:49.674Z,99.90
2023-02-19T22:09:17.466Z,99.90
2023-02-19T22:11:44.817Z,99.90
2023-02-19T22:14:12.018Z,99.90
2023-02-19T22:16:39.132Z,99.90
2023-02-19T22:19:06.489Z,99.90
2023-02-19T22:21:34.238Z,99.90
2023-02-19T22:24:02.806Z,99.90
2023-02-19T22:26:33.739Z,99.90
2023-02-19T22:29:07.531Z,99.90
2023-02-19T22:31:35.854Z,99.90
2023-02-19T22:34:04.116Z,99.90
2023-02-19T22:36:34.393Z,99.90
2023-02-19T22:39:01.676Z,99.90
2023-02-19T22:41:28.969Z,99.90
2023-02-19T22:43:57.977Z,99.90
2023-02-19T22:46:28.726Z,99.90
2023-02-19T22:48:57.486Z,99.90
2023-02-19T22:51:25.260Z,99.90
2023-02-19T22:53:59.399Z,99.90
2023-02-19T22:56:28.647Z,99.90
2023-02-19T22:58:56.765Z,99.90
2023-02-19T23:01:25.436Z,99.90
2023-02-19T23:03:59.332Z,99.90
2023-02-19T23:06:32.010Z,99.90
2023-02-19T23:09:08.502Z,99.90
2023-02-19T23:11:39.764Z,99.90
2023-02-19T23:14:07.442Z,99.90
2023-02-19T23:16:36.759Z,99.90
2023-02-19T23:19:10.675Z,99.90
2023-02-19T23:21:39.293Z,99.90
2023-02-19T23:24:08.175Z,99.90
2023-02-19T23:26:35.429Z,99.90
2023-02-19T23:29:05.110Z,99.90
2023-02-19T23:31:33.096Z,99.90
2023-02-19T23:34:00.120Z,99.90
2023-02-19T23:36:27.465Z,99.90
2023-02-19T23:38:54.542Z,99.90
2023-02-19T23:41:21.623Z,99.90
2023-02-19T23:43:48.750Z,99.90
2023-02-19T23:46:17.860Z,99.90
2023-02-19T23:48:46.469Z,99.90
2023-02-19T23:51:13.614Z,99.90
2023-02-19T23:53:41.007Z,99.90
2023-02-19T23:56:08.613Z,99.90
2023-02-19T23:58:35.896Z,99.90
